sensor_id;sensor_type;location;lat;lon;timestamp;P1;durP1;ratioP1;P2;durP2;ratioP2
11548;SDS011;61444;59.472;18.306;2023-08-07T00:01:09;28.60;;;19.47;;
11548;SDS011;61444;59.472;18.306;2023-08-07T00:03:19;25.77;;;19.57;;
11548;SDS011;61444;59.472;18.306;2023-08-07T00:05:28;25.10;;;19.10;;
11548;SDS011;61444;59.472;18.306;2023-08-07T00:07:37;26.07;;;19.30;;
11548;SDS011;61444;59.472;18.306;2023-08-07T00:09:49;23.40;;;19.70;;
11548;SDS011;61444;59.472;18.306;2023-08-07T00:12:01;29.10;;;19.00;;
11548;SDS011;61444;59.472;18.306;2023-08-07T00:14:10;23.10;;;18.90;;
11548;SDS011;61444;59.472;18.306;2023-08-07T00:16:18;27.80;;;19.73;;
11548;SDS011;61444;59.472;18.306;2023-08-07T00:18:28;26.33;;;20.00;;
11548;SDS011;61444;59.472;18.306;2023-08-07T00:20:37;27.97;;;20.97;;
11548;SDS011;61444;59.472;18.306;2023-08-07T00:22:45;27.07;;;22.80;;
11548;SDS011;61444;59.472;18.306;2023-08-07T00:24:54;25.17;;;22.40;;
11548;SDS011;61444;59.472;18.306;2023-08-07T00:27:03;28.53;;;23.33;;
11548;SDS011;61444;59.472;18.306;2023-08-07T00:29:13;30.33;;;23.63;;
11548;SDS011;61444;59.472;18.306;2023-08-07T00:31:21;31.37;;;22.93;;
11548;SDS011;61444;59.472;18.306;2023-08-07T00:33:31;29.30;;;22.73;;
11548;SDS011;61444;59.472;18.306;2023-08-07T00:35:40;31.80;;;23.87;;
11548;SDS011;61444;59.472;18.306;2023-08-07T00:37:49;25.87;;;21.67;;
11548;SDS011;61444;59.472;18.306;2023-08-07T00:39:58;28.50;;;21.63;;
11548;SDS011;61444;59.472;18.306;2023-08-07T00:42:09;28.90;;;22.43;;
11548;SDS011;61444;59.472;18.306;2023-08-07T00:44:17;25.47;;;22.07;;
11548;SDS011;61444;59.472;18.306;2023-08-07T00:46:26;27.57;;;21.57;;
11548;SDS011;61444;59.472;18.306;2023-08-07T00:48:36;25.83;;;21.40;;
11548;SDS011;61444;59.472;18.306;2023-08-07T00:50:45;26.47;;;21.93;;
11548;SDS011;61444;59.472;18.306;2023-08-07T00:52:54;28.07;;;21.80;;
11548;SDS011;61444;59.472;18.306;2023-08-07T00:55:03;31.80;;;22.77;;
11548;SDS011;61444;59.472;18.306;2023-08-07T00:57:12;25.67;;;22.07;;
11548;SDS011;61444;59.472;18.306;2023-08-07T00:59:23;27.43;;;22.33;;
11548;SDS011;61444;59.472;18.306;2023-08-07T01:01:32;25.93;;;21.80;;
11548;SDS011;61444;59.472;18.306;2023-08-07T01:03:42;28.90;;;21.57;;
11548;SDS011;61444;59.472;18.306;2023-08-07T01:05:51;29.50;;;22.53;;
11548;SDS011;61444;59.472;18.306;2023-08-07T01:08:00;30.23;;;22.33;;
11548;SDS011;61444;59.472;18.306;2023-08-07T01:10:10;31.20;;;21.50;;
11548;SDS011;61444;59.472;18.306;2023-08-07T01:12:19;32.13;;;22.07;;
11548;SDS011;61444;59.472;18.306;2023-08-07T01:14:33;29.10;;;22.60;;
11548;SDS011;61444;59.472;18.306;2023-08-07T01:16:45;35.23;;;23.70;;
11548;SDS011;61444;59.472;18.306;2023-08-07T01:18:58;30.27;;;23.53;;
11548;SDS011;61444;59.472;18.306;2023-08-07T01:21:16;32.87;;;23.33;;
11548;SDS011;61444;59.472;18.306;2023-08-07T01:23:27;26.13;;;22.13;;
11548;SDS011;61444;59.472;18.306;2023-08-07T01:25:35;26.67;;;21.53;;
11548;SDS011;61444;59.472;18.306;2023-08-07T01:27:53;33.43;;;23.37;;
11548;SDS011;61444;59.472;18.306;2023-08-07T01:30:08;30.87;;;22.43;;
11548;SDS011;61444;59.472;18.306;2023-08-07T01:32:17;30.67;;;23.13;;
11548;SDS011;61444;59.472;18.306;2023-08-07T01:34:28;35.20;;;23.83;;
11548;SDS011;61444;59.472;18.306;2023-08-07T01:36:40;27.40;;;22.00;;
11548;SDS011;61444;59.472;18.306;2023-08-07T01:38:50;28.63;;;22.27;;
11548;SDS011;61444;59.472;18.306;2023-08-07T01:41:03;26.03;;;22.70;;
11548;SDS011;61444;59.472;18.306;2023-08-07T01:43:12;27.90;;;23.47;;
11548;SDS011;61444;59.472;18.306;2023-08-07T01:45:22;27.33;;;23.53;;
11548;SDS011;61444;59.472;18.306;2023-08-07T01:47:31;29.20;;;22.63;;
11548;SDS011;61444;59.472;18.306;2023-08-07T01:49:40;29.80;;;21.83;;
11548;SDS011;61444;59.472;18.306;2023-08-07T01:51:50;29.37;;;22.87;;
11548;SDS011;61444;59.472;18.306;2023-08-07T01:54:00;25.90;;;22.00;;
11548;SDS011;61444;59.472;18.306;2023-08-07T01:56:09;27.40;;;22.77;;
11548;SDS011;61444;59.472;18.306;2023-08-07T01:58:18;24.97;;;21.23;;
11548;SDS011;61444;59.472;18.306;2023-08-07T02:00:27;25.40;;;21.47;;
11548;SDS011;61444;59.472;18.306;2023-08-07T02:02:36;25.53;;;21.30;;
11548;SDS011;61444;59.472;18.306;2023-08-07T02:04:45;28.20;;;22.10;;
11548;SDS011;61444;59.472;18.306;2023-08-07T02:06:54;25.97;;;20.30;;
11548;SDS011;61444;59.472;18.306;2023-08-07T02:09:05;24.13;;;20.37;;
11548;SDS011;61444;59.472;18.306;2023-08-07T02:11:14;24.53;;;20.07;;
11548;SDS011;61444;59.472;18.306;2023-08-07T02:13:23;23.30;;;20.60;;
11548;SDS011;61444;59.472;18.306;2023-08-07T02:15:32;25.13;;;19.50;;
11548;SDS011;61444;59.472;18.306;2023-08-07T02:17:41;21.97;;;19.13;;
11548;SDS011;61444;59.472;18.306;2023-08-07T02:19:50;23.07;;;19.27;;
11548;SDS011;61444;59.472;18.306;2023-08-07T02:21:59;23.50;;;19.67;;
11548;SDS011;61444;59.472;18.306;2023-08-07T02:24:08;25.20;;;19.37;;
11548;SDS011;61444;59.472;18.306;2023-08-07T02:26:16;22.37;;;18.40;;
11548;SDS011;61444;59.472;18.306;2023-08-07T02:28:25;23.47;;;19.03;;
11548;SDS011;61444;59.472;18.306;2023-08-07T02:30:33;22.40;;;18.40;;
11548;SDS011;61444;59.472;18.306;2023-08-07T02:32:42;20.60;;;17.33;;
11548;SDS011;61444;59.472;18.306;2023-08-07T02:34:52;20.33;;;18.13;;
11548;SDS011;61444;59.472;18.306;2023-08-07T02:37:04;20.63;;;17.57;;
11548;SDS011;61444;59.472;18.306;2023-08-07T02:39:15;18.90;;;16.90;;
11548;SDS011;61444;59.472;18.306;2023-08-07T02:41:24;20.47;;;17.50;;
11548;SDS011;61444;59.472;18.306;2023-08-07T02:43:32;18.67;;;16.67;;
11548;SDS011;61444;59.472;18.306;2023-08-07T02:45:41;20.20;;;17.03;;
11548;SDS011;61444;59.472;18.306;2023-08-07T02:47:50;19.07;;;16.80;;
11548;SDS011;61444;59.472;18.306;2023-08-07T02:49:59;21.20;;;16.60;;
11548;SDS011;61444;59.472;18.306;2023-08-07T02:52:07;20.50;;;17.30;;
11548;SDS011;61444;59.472;18.306;2023-08-07T02:54:18;18.50;;;16.60;;
11548;SDS011;61444;59.472;18.306;2023-08-07T02:56:27;18.90;;;17.00;;
11548;SDS011;61444;59.472;18.306;2023-08-07T02:58:36;19.43;;;16.23;;
11548;SDS011;61444;59.472;18.306;2023-08-07T03:00:45;17.80;;;15.37;;
11548;SDS011;61444;59.472;18.306;2023-08-07T03:02:54;18.10;;;15.50;;
11548;SDS011;61444;59.472;18.306;2023-08-07T03:05:03;17.93;;;16.03;;
11548;SDS011;61444;59.472;18.306;2023-08-07T03:07:12;16.97;;;15.27;;
11548;SDS011;61444;59.472;18.306;2023-08-07T03:09:22;17.30;;;14.73;;
11548;SDS011;61444;59.472;18.306;2023-08-07T03:11:31;16.57;;;14.87;;
11548;SDS011;61444;59.472;18.306;2023-08-07T03:13:40;16.83;;;15.10;;
11548;SDS011;61444;59.472;18.306;2023-08-07T03:15:48;16.50;;;14.83;;
11548;SDS011;61444;59.472;18.306;2023-08-07T03:17:57;16.70;;;13.83;;
11548;SDS011;61444;59.472;18.306;2023-08-07T03:20:06;15.03;;;13.43;;
11548;SDS011;61444;59.472;18.306;2023-08-07T03:22:16;15.63;;;13.50;;
11548;SDS011;61444;59.472;18.306;2023-08-07T03:24:26;15.70;;;14.10;;
11548;SDS011;61444;59.472;18.306;2023-08-07T03:26:35;17.73;;;14.30;;
11548;SDS011;61444;59.472;18.306;2023-08-07T03:28:44;17.40;;;14.73;;
11548;SDS011;61444;59.472;18.306;2023-08-07T03:30:55;20.03;;;15.67;;
11548;SDS011;61444;59.472;18.306;2023-08-07T03:33:04;17.87;;;15.37;;
11548;SDS011;61444;59.472;18.306;2023-08-07T03:35:14;17.70;;;15.90;;
11548;SDS011;61444;59.472;18.306;2023-08-07T03:37:23;19.10;;;16.07;;
11548;SDS011;61444;59.472;18.306;2023-08-07T03:39:33;18.70;;;16.50;;
11548;SDS011;61444;59.472;18.306;2023-08-07T03:41:42;23.40;;;17.03;;
11548;SDS011;61444;59.472;18.306;2023-08-07T03:43:51;20.53;;;17.53;;
11548;SDS011;61444;59.472;18.306;2023-08-07T03:45:59;19.63;;;17.60;;
11548;SDS011;61444;59.472;18.306;2023-08-07T03:48:13;22.30;;;18.40;;
11548;SDS011;61444;59.472;18.306;2023-08-07T03:50:22;21.07;;;18.73;;
11548;SDS011;61444;59.472;18.306;2023-08-07T03:52:30;22.23;;;19.60;;
11548;SDS011;61444;59.472;18.306;2023-08-07T03:54:41;22.97;;;20.57;;
11548;SDS011;61444;59.472;18.306;2023-08-07T03:56:50;26.27;;;21.20;;
11548;SDS011;61444;59.472;18.306;2023-08-07T03:58:59;27.37;;;21.10;;
11548;SDS011;61444;59.472;18.306;2023-08-07T04:01:08;27.07;;;22.33;;
11548;SDS011;61444;59.472;18.306;2023-08-07T04:03:19;26.50;;;22.90;;
11548;SDS011;61444;59.472;18.306;2023-08-07T04:05:27;27.90;;;23.17;;
11548;SDS011;61444;59.472;18.306;2023-08-07T04:07:36;26.60;;;23.77;;
11548;SDS011;61444;59.472;18.306;2023-08-07T04:09:47;27.23;;;23.20;;
11548;SDS011;61444;59.472;18.306;2023-08-07T04:11:55;26.63;;;23.57;;
11548;SDS011;61444;59.472;18.306;2023-08-07T04:14:04;32.07;;;24.93;;
11548;SDS011;61444;59.472;18.306;2023-08-07T04:16:13;27.67;;;24.23;;
11548;SDS011;61444;59.472;18.306;2023-08-07T04:18:23;27.53;;;23.60;;
11548;SDS011;61444;59.472;18.306;2023-08-07T04:20:34;31.30;;;24.70;;
11548;SDS011;61444;59.472;18.306;2023-08-07T04:22:42;31.37;;;25.07;;
11548;SDS011;61444;59.472;18.306;2023-08-07T04:24:54;28.13;;;25.13;;
11548;SDS011;61444;59.472;18.306;2023-08-07T04:27:03;29.30;;;26.03;;
11548;SDS011;61444;59.472;18.306;2023-08-07T04:29:12;28.53;;;25.57;;
11548;SDS011;61444;59.472;18.306;2023-08-07T04:31:20;28.97;;;25.73;;
11548;SDS011;61444;59.472;18.306;2023-08-07T04:33:31;28.73;;;25.50;;
11548;SDS011;61444;59.472;18.306;2023-08-07T04:35:40;30.63;;;25.33;;
11548;SDS011;61444;59.472;18.306;2023-08-07T04:37:49;30.17;;;25.23;;
11548;SDS011;61444;59.472;18.306;2023-08-07T04:39:59;32.00;;;26.03;;
11548;SDS011;61444;59.472;18.306;2023-08-07T04:42:08;28.30;;;25.23;;
11548;SDS011;61444;59.472;18.306;2023-08-07T04:44:19;27.97;;;24.83;;
11548;SDS011;61444;59.472;18.306;2023-08-07T04:46:28;28.57;;;25.57;;
11548;SDS011;61444;59.472;18.306;2023-08-07T04:48:36;26.97;;;23.97;;
11548;SDS011;61444;59.472;18.306;2023-08-07T04:50:45;27.03;;;24.13;;
11548;SDS011;61444;59.472;18.306;2023-08-07T04:52:54;26.87;;;23.43;;
11548;SDS011;61444;59.472;18.306;2023-08-07T04:55:05;25.93;;;23.13;;
11548;SDS011;61444;59.472;18.306;2023-08-07T04:57:14;27.17;;;23.60;;
11548;SDS011;61444;59.472;18.306;2023-08-07T04:59:23;25.87;;;23.07;;
11548;SDS011;61444;59.472;18.306;2023-08-07T05:01:31;28.83;;;23.00;;
11548;SDS011;61444;59.472;18.306;2023-08-07T05:03:40;30.60;;;24.40;;
11548;SDS011;61444;59.472;18.306;2023-08-07T05:05:49;30.57;;;24.20;;
11548;SDS011;61444;59.472;18.306;2023-08-07T05:07:59;31.73;;;23.87;;
11548;SDS011;61444;59.472;18.306;2023-08-07T05:10:10;31.03;;;24.47;;
11548;SDS011;61444;59.472;18.306;2023-08-07T05:12:19;35.40;;;24.40;;
11548;SDS011;61444;59.472;18.306;2023-08-07T05:14:28;33.07;;;25.13;;
11548;SDS011;61444;59.472;18.306;2023-08-07T05:16:37;28.83;;;24.33;;
11548;SDS011;61444;59.472;18.306;2023-08-07T05:18:46;31.00;;;25.57;;
11548;SDS011;61444;59.472;18.306;2023-08-07T05:20:56;29.70;;;25.70;;
11548;SDS011;61444;59.472;18.306;2023-08-07T05:23:05;30.20;;;25.73;;
11548;SDS011;61444;59.472;18.306;2023-08-07T05:25:15;32.40;;;26.10;;
11548;SDS011;61444;59.472;18.306;2023-08-07T05:27:26;28.67;;;24.00;;
11548;SDS011;61444;59.472;18.306;2023-08-07T05:29:36;32.07;;;24.10;;
11548;SDS011;61444;59.472;18.306;2023-08-07T05:31:50;29.03;;;24.47;;
11548;SDS011;61444;59.472;18.306;2023-08-07T05:33:59;27.23;;;23.97;;
11548;SDS011;61444;59.472;18.306;2023-08-07T05:36:10;28.37;;;24.30;;
11548;SDS011;61444;59.472;18.306;2023-08-07T05:38:19;31.80;;;26.37;;
11548;SDS011;61444;59.472;18.306;2023-08-07T05:40:29;30.17;;;26.27;;
11548;SDS011;61444;59.472;18.306;2023-08-07T05:42:38;30.67;;;27.37;;
11548;SDS011;61444;59.472;18.306;2023-08-07T05:44:47;30.90;;;26.13;;
11548;SDS011;61444;59.472;18.306;2023-08-07T05:46:56;30.67;;;25.73;;
11548;SDS011;61444;59.472;18.306;2023-08-07T05:49:04;33.07;;;27.80;;
11548;SDS011;61444;59.472;18.306;2023-08-07T05:51:13;31.47;;;26.87;;
11548;SDS011;61444;59.472;18.306;2023-08-07T05:53:21;32.87;;;26.83;;
11548;SDS011;61444;59.472;18.306;2023-08-07T05:55:32;30.37;;;26.90;;
11548;SDS011;61444;59.472;18.306;2023-08-07T05:57:40;30.80;;;26.97;;
11548;SDS011;61444;59.472;18.306;2023-08-07T05:59:51;29.00;;;25.80;;
11548;SDS011;61444;59.472;18.306;2023-08-07T06:01:59;29.33;;;25.00;;
11548;SDS011;61444;59.472;18.306;2023-08-07T06:04:09;28.23;;;25.23;;
11548;SDS011;61444;59.472;18.306;2023-08-07T06:06:19;30.80;;;25.50;;
11548;SDS011;61444;59.472;18.306;2023-08-07T06:08:27;29.13;;;25.60;;
11548;SDS011;61444;59.472;18.306;2023-08-07T06:10:41;30.63;;;24.63;;
11548;SDS011;61444;59.472;18.306;2023-08-07T06:12:49;28.67;;;23.97;;
11548;SDS011;61444;59.472;18.306;2023-08-07T06:15:01;29.93;;;22.50;;
11548;SDS011;61444;59.472;18.306;2023-08-07T06:17:11;25.97;;;22.53;;
11548;SDS011;61444;59.472;18.306;2023-08-07T06:19:20;25.57;;;22.93;;
11548;SDS011;61444;59.472;18.306;2023-08-07T06:21:38;25.13;;;22.43;;
11548;SDS011;61444;59.472;18.306;2023-08-07T06:23:46;28.17;;;22.57;;
11548;SDS011;61444;59.472;18.306;2023-08-07T06:25:57;26.90;;;22.33;;
11548;SDS011;61444;59.472;18.306;2023-08-07T06:28:05;29.30;;;21.40;;
11548;SDS011;61444;59.472;18.306;2023-08-07T06:30:14;26.60;;;22.30;;
11548;SDS011;61444;59.472;18.306;2023-08-07T06:32:24;25.50;;;22.00;;
11548;SDS011;61444;59.472;18.306;2023-08-07T06:34:34;23.23;;;20.23;;
11548;SDS011;61444;59.472;18.306;2023-08-07T06:36:44;24.40;;;20.73;;
11548;SDS011;61444;59.472;18.306;2023-08-07T06:38:53;24.43;;;22.07;;
11548;SDS011;61444;59.472;18.306;2023-08-07T06:41:04;24.97;;;21.90;;
11548;SDS011;61444;59.472;18.306;2023-08-07T06:43:13;24.23;;;21.47;;
11548;SDS011;61444;59.472;18.306;2023-08-07T06:45:22;23.20;;;20.80;;
11548;SDS011;61444;59.472;18.306;2023-08-07T06:47:33;22.80;;;20.50;;
11548;SDS011;61444;59.472;18.306;2023-08-07T06:49:42;24.80;;;20.60;;
11548;SDS011;61444;59.472;18.306;2023-08-07T06:51:51;25.63;;;20.37;;
11548;SDS011;61444;59.472;18.306;2023-08-07T06:54:00;23.47;;;20.93;;
11548;SDS011;61444;59.472;18.306;2023-08-07T06:56:14;23.80;;;21.40;;
11548;SDS011;61444;59.472;18.306;2023-08-07T06:58:23;22.83;;;20.43;;
11548;SDS011;61444;59.472;18.306;2023-08-07T07:00:36;22.63;;;20.43;;
11548;SDS011;61444;59.472;18.306;2023-08-07T07:02:45;22.93;;;20.63;;
11548;SDS011;61444;59.472;18.306;2023-08-07T07:04:54;24.27;;;21.77;;
11548;SDS011;61444;59.472;18.306;2023-08-07T07:07:03;25.13;;;20.37;;
11548;SDS011;61444;59.472;18.306;2023-08-07T07:09:12;25.63;;;19.70;;
11548;SDS011;61444;59.472;18.306;2023-08-07T07:11:24;24.93;;;20.10;;
11548;SDS011;61444;59.472;18.306;2023-08-07T07:13:33;24.63;;;20.93;;
11548;SDS011;61444;59.472;18.306;2023-08-07T07:15:42;22.70;;;19.60;;
11548;SDS011;61444;59.472;18.306;2023-08-07T07:17:51;24.13;;;19.77;;
11548;SDS011;61444;59.472;18.306;2023-08-07T07:20:00;22.13;;;19.83;;
11548;SDS011;61444;59.472;18.306;2023-08-07T07:22:09;21.60;;;19.47;;
11548;SDS011;61444;59.472;18.306;2023-08-07T07:24:18;21.87;;;19.53;;
11548;SDS011;61444;59.472;18.306;2023-08-07T07:26:28;22.70;;;20.60;;
11548;SDS011;61444;59.472;18.306;2023-08-07T07:28:37;21.37;;;19.27;;
11548;SDS011;61444;59.472;18.306;2023-08-07T07:30:46;21.67;;;19.43;;
11548;SDS011;61444;59.472;18.306;2023-08-07T07:32:55;24.47;;;20.57;;
11548;SDS011;61444;59.472;18.306;2023-08-07T07:35:04;23.13;;;20.30;;
11548;SDS011;61444;59.472;18.306;2023-08-07T07:37:14;20.60;;;18.67;;
11548;SDS011;61444;59.472;18.306;2023-08-07T07:39:23;21.17;;;18.90;;
11548;SDS011;61444;59.472;18.306;2023-08-07T07:41:35;22.73;;;20.43;;
11548;SDS011;61444;59.472;18.306;2023-08-07T07:43:46;22.57;;;20.20;;
11548;SDS011;61444;59.472;18.306;2023-08-07T07:45:55;21.87;;;19.77;;
11548;SDS011;61444;59.472;18.306;2023-08-07T07:48:04;23.93;;;19.13;;
11548;SDS011;61444;59.472;18.306;2023-08-07T07:50:14;21.17;;;19.17;;
11548;SDS011;61444;59.472;18.306;2023-08-07T07:52:23;21.03;;;18.83;;
11548;SDS011;61444;59.472;18.306;2023-08-07T07:54:32;21.47;;;19.33;;
11548;SDS011;61444;59.472;18.306;2023-08-07T07:56:42;21.93;;;19.83;;
11548;SDS011;61444;59.472;18.306;2023-08-07T07:58:51;23.07;;;20.47;;
11548;SDS011;61444;59.472;18.306;2023-08-07T08:01:00;21.00;;;18.93;;
11548;SDS011;61444;59.472;18.306;2023-08-07T08:03:09;23.57;;;21.00;;
11548;SDS011;61444;59.472;18.306;2023-08-07T08:05:18;23.93;;;21.30;;
11548;SDS011;61444;59.472;18.306;2023-08-07T08:07:27;22.27;;;20.27;;
11548;SDS011;61444;59.472;18.306;2023-08-07T08:09:38;22.43;;;18.33;;
11548;SDS011;61444;59.472;18.306;2023-08-07T08:11:49;21.40;;;19.43;;
11548;SDS011;61444;59.472;18.306;2023-08-07T08:13:58;23.20;;;20.80;;
11548;SDS011;61444;59.472;18.306;2023-08-07T08:16:07;21.07;;;19.07;;
11548;SDS011;61444;59.472;18.306;2023-08-07T08:18:16;21.63;;;19.43;;
11548;SDS011;61444;59.472;18.306;2023-08-07T08:20:25;22.13;;;19.83;;
11548;SDS011;61444;59.472;18.306;2023-08-07T08:22:37;22.37;;;19.40;;
11548;SDS011;61444;59.472;18.306;2023-08-07T08:24:46;23.83;;;20.73;;
11548;SDS011;61444;59.472;18.306;2023-08-07T08:27:00;21.33;;;19.30;;
11548;SDS011;61444;59.472;18.306;2023-08-07T08:29:09;23.33;;;19.53;;
11548;SDS011;61444;59.472;18.306;2023-08-07T08:31:18;20.23;;;18.20;;
11548;SDS011;61444;59.472;18.306;2023-08-07T08:33:28;20.70;;;18.53;;
11548;SDS011;61444;59.472;18.306;2023-08-07T08:35:40;21.00;;;19.00;;
11548;SDS011;61444;59.472;18.306;2023-08-07T08:37:48;21.80;;;19.80;;
11548;SDS011;61444;59.472;18.306;2023-08-07T08:39:57;21.53;;;19.23;;
11548;SDS011;61444;59.472;18.306;2023-08-07T08:42:10;21.93;;;19.83;;
11548;SDS011;61444;59.472;18.306;2023-08-07T08:44:21;21.00;;;18.80;;
11548;SDS011;61444;59.472;18.306;2023-08-07T08:46:30;21.20;;;19.20;;
11548;SDS011;61444;59.472;18.306;2023-08-07T08:48:40;20.50;;;18.33;;
11548;SDS011;61444;59.472;18.306;2023-08-07T08:50:49;20.70;;;18.80;;
11548;SDS011;61444;59.472;18.306;2023-08-07T08:52:58;20.07;;;17.30;;
11548;SDS011;61444;59.472;18.306;2023-08-07T08:55:08;21.77;;;19.77;;
11548;SDS011;61444;59.472;18.306;2023-08-07T08:57:19;22.47;;;18.97;;
11548;SDS011;61444;59.472;18.306;2023-08-07T08:59:28;20.73;;;18.60;;
11548;SDS011;61444;59.472;18.306;2023-08-07T09:01:37;21.97;;;19.33;;
11548;SDS011;61444;59.472;18.306;2023-08-07T09:03:48;23.03;;;18.30;;
11548;SDS011;61444;59.472;18.306;2023-08-07T09:05:58;20.60;;;18.53;;
11548;SDS011;61444;59.472;18.306;2023-08-07T09:08:07;19.97;;;17.97;;
11548;SDS011;61444;59.472;18.306;2023-08-07T09:10:17;20.67;;;18.50;;
11548;SDS011;61444;59.472;18.306;2023-08-07T09:12:27;20.57;;;18.47;;
11548;SDS011;61444;59.472;18.306;2023-08-07T09:14:37;20.10;;;17.97;;
11548;SDS011;61444;59.472;18.306;2023-08-07T09:16:47;20.83;;;18.93;;
11548;SDS011;61444;59.472;18.306;2023-08-07T09:18:57;20.07;;;18.10;;
11548;SDS011;61444;59.472;18.306;2023-08-07T09:21:10;20.33;;;18.47;;
11548;SDS011;61444;59.472;18.306;2023-08-07T09:23:23;22.80;;;19.50;;
11548;SDS011;61444;59.472;18.306;2023-08-07T09:25:33;21.03;;;18.83;;
11548;SDS011;61444;59.472;18.306;2023-08-07T09:27:43;20.87;;;18.40;;
11548;SDS011;61444;59.472;18.306;2023-08-07T09:29:54;20.77;;;18.63;;
11548;SDS011;61444;59.472;18.306;2023-08-07T09:32:06;19.07;;;17.17;;
11548;SDS011;61444;59.472;18.306;2023-08-07T09:34:20;19.70;;;17.87;;
11548;SDS011;61444;59.472;18.306;2023-08-07T09:36:29;20.63;;;18.53;;
11548;SDS011;61444;59.472;18.306;2023-08-07T09:38:39;20.53;;;17.57;;
11548;SDS011;61444;59.472;18.306;2023-08-07T09:40:48;21.53;;;19.43;;
11548;SDS011;61444;59.472;18.306;2023-08-07T09:43:00;20.07;;;18.10;;
11548;SDS011;61444;59.472;18.306;2023-08-07T09:45:18;20.83;;;18.77;;
11548;SDS011;61444;59.472;18.306;2023-08-07T09:47:27;20.10;;;18.37;;
11548;SDS011;61444;59.472;18.306;2023-08-07T09:49:38;19.73;;;17.87;;
11548;SDS011;61444;59.472;18.306;2023-08-07T09:51:47;19.87;;;18.07;;
11548;SDS011;61444;59.472;18.306;2023-08-07T09:53:57;19.83;;;17.90;;
11548;SDS011;61444;59.472;18.306;2023-08-07T09:56:06;19.87;;;17.97;;
11548;SDS011;61444;59.472;18.306;2023-08-07T09:58:17;19.07;;;17.33;;
11548;SDS011;61444;59.472;18.306;2023-08-07T10:00:26;20.73;;;18.40;;
11548;SDS011;61444;59.472;18.306;2023-08-07T10:02:36;20.57;;;18.60;;
11548;SDS011;61444;59.472;18.306;2023-08-07T10:04:49;19.57;;;17.67;;
11548;SDS011;61444;59.472;18.306;2023-08-07T10:06:58;20.90;;;18.87;;
11548;SDS011;61444;59.472;18.306;2023-08-07T10:09:08;19.90;;;17.97;;
11548;SDS011;61444;59.472;18.306;2023-08-07T10:11:15;20.90;;;18.77;;
11548;SDS011;61444;59.472;18.306;2023-08-07T10:13:26;21.03;;;18.70;;
11548;SDS011;61444;59.472;18.306;2023-08-07T10:15:39;20.40;;;18.47;;
11548;SDS011;61444;59.472;18.306;2023-08-07T10:17:48;20.43;;;18.57;;
11548;SDS011;61444;59.472;18.306;2023-08-07T10:19:57;21.20;;;19.00;;
11548;SDS011;61444;59.472;18.306;2023-08-07T10:22:06;20.23;;;18.43;;
11548;SDS011;61444;59.472;18.306;2023-08-07T10:24:15;20.77;;;18.67;;
11548;SDS011;61444;59.472;18.306;2023-08-07T10:26:24;19.60;;;17.80;;
11548;SDS011;61444;59.472;18.306;2023-08-07T10:28:35;21.20;;;19.20;;
11548;SDS011;61444;59.472;18.306;2023-08-07T10:30:45;19.97;;;18.10;;
11548;SDS011;61444;59.472;18.306;2023-08-07T10:32:55;21.87;;;19.73;;
11548;SDS011;61444;59.472;18.306;2023-08-07T10:35:05;22.07;;;19.83;;
11548;SDS011;61444;59.472;18.306;2023-08-07T10:37:26;20.77;;;18.67;;
11548;SDS011;61444;59.472;18.306;2023-08-07T10:39:46;20.53;;;18.53;;
11548;SDS011;61444;59.472;18.306;2023-08-07T10:42:10;20.67;;;18.67;;
11548;SDS011;61444;59.472;18.306;2023-08-07T10:44:22;20.53;;;18.57;;
11548;SDS011;61444;59.472;18.306;2023-08-07T10:46:46;20.93;;;18.97;;
11548;SDS011;61444;59.472;18.306;2023-08-07T10:48:55;21.67;;;19.47;;
11548;SDS011;61444;59.472;18.306;2023-08-07T10:51:06;22.60;;;20.40;;
11548;SDS011;61444;59.472;18.306;2023-08-07T10:53:18;22.70;;;20.40;;
11548;SDS011;61444;59.472;18.306;2023-08-07T10:55:42;22.83;;;20.43;;
11548;SDS011;61444;59.472;18.306;2023-08-07T10:57:52;22.77;;;20.47;;
11548;SDS011;61444;59.472;18.306;2023-08-07T11:00:03;20.87;;;18.90;;
11548;SDS011;61444;59.472;18.306;2023-08-07T11:02:21;22.80;;;20.43;;
11548;SDS011;61444;59.472;18.306;2023-08-07T11:04:30;21.20;;;19.10;;
11548;SDS011;61444;59.472;18.306;2023-08-07T11:06:39;22.20;;;19.93;;
11548;SDS011;61444;59.472;18.306;2023-08-07T11:08:49;22.97;;;18.80;;
11548;SDS011;61444;59.472;18.306;2023-08-07T11:11:03;20.97;;;18.97;;
11548;SDS011;61444;59.472;18.306;2023-08-07T11:13:11;21.53;;;19.27;;
11548;SDS011;61444;59.472;18.306;2023-08-07T11:15:22;20.47;;;18.67;;
11548;SDS011;61444;59.472;18.306;2023-08-07T11:17:31;21.77;;;19.03;;
11548;SDS011;61444;59.472;18.306;2023-08-07T11:19:39;20.57;;;18.77;;
11548;SDS011;61444;59.472;18.306;2023-08-07T11:21:48;21.03;;;18.83;;
11548;SDS011;61444;59.472;18.306;2023-08-07T11:23:57;20.47;;;18.27;;
11548;SDS011;61444;59.472;18.306;2023-08-07T11:26:07;21.03;;;19.00;;
11548;SDS011;61444;59.472;18.306;2023-08-07T11:28:17;21.30;;;19.10;;
11548;SDS011;61444;59.472;18.306;2023-08-07T11:30:28;20.57;;;18.57;;
11548;SDS011;61444;59.472;18.306;2023-08-07T11:32:37;21.83;;;19.70;;
11548;SDS011;61444;59.472;18.306;2023-08-07T11:34:52;20.87;;;18.67;;
11548;SDS011;61444;59.472;18.306;2023-08-07T11:37:01;21.13;;;18.97;;
11548;SDS011;61444;59.472;18.306;2023-08-07T11:39:10;22.10;;;19.73;;
11548;SDS011;61444;59.472;18.306;2023-08-07T11:41:20;34.53;;;21.40;;
11548;SDS011;61444;59.472;18.306;2023-08-07T11:43:28;23.57;;;21.27;;
11548;SDS011;61444;59.472;18.306;2023-08-07T11:45:39;22.33;;;20.03;;
11548;SDS011;61444;59.472;18.306;2023-08-07T11:47:48;22.93;;;20.83;;
11548;SDS011;61444;59.472;18.306;2023-08-07T11:49:57;21.93;;;19.73;;
11548;SDS011;61444;59.472;18.306;2023-08-07T11:52:06;23.43;;;21.23;;
11548;SDS011;61444;59.472;18.306;2023-08-07T11:54:16;21.83;;;19.57;;
11548;SDS011;61444;59.472;18.306;2023-08-07T11:56:25;21.77;;;19.67;;
11548;SDS011;61444;59.472;18.306;2023-08-07T11:58:35;22.37;;;20.03;;
11548;SDS011;61444;59.472;18.306;2023-08-07T12:00:46;23.40;;;19.13;;
11548;SDS011;61444;59.472;18.306;2023-08-07T12:02:55;20.53;;;18.57;;
11548;SDS011;61444;59.472;18.306;2023-08-07T12:05:05;21.47;;;19.20;;
11548;SDS011;61444;59.472;18.306;2023-08-07T12:07:17;21.43;;;18.87;;
11548;SDS011;61444;59.472;18.306;2023-08-07T12:09:31;20.57;;;18.47;;
11548;SDS011;61444;59.472;18.306;2023-08-07T12:11:40;20.63;;;18.50;;
11548;SDS011;61444;59.472;18.306;2023-08-07T12:13:49;21.03;;;19.13;;
11548;SDS011;61444;59.472;18.306;2023-08-07T12:15:59;19.90;;;17.93;;
11548;SDS011;61444;59.472;18.306;2023-08-07T12:18:08;21.40;;;18.30;;
11548;SDS011;61444;59.472;18.306;2023-08-07T12:20:18;21.23;;;19.27;;
11548;SDS011;61444;59.472;18.306;2023-08-07T12:22:27;21.13;;;18.73;;
11548;SDS011;61444;59.472;18.306;2023-08-07T12:24:36;20.50;;;18.40;;
11548;SDS011;61444;59.472;18.306;2023-08-07T12:26:45;20.67;;;18.77;;
11548;SDS011;61444;59.472;18.306;2023-08-07T12:28:54;20.47;;;18.73;;